sensor_id;sensor_type;location;lat;lon;timestamp;P1;durP1;ratioP1;P2;durP2;ratioP2
4603;SDS011;2314;48.272;11.562;2022-09-09T00:01:10;121.30;;;3.83;;
4603;SDS011;2314;48.272;11.562;2022-09-09T00:03:53;121.47;;;3.90;;
4603;SDS011;2314;48.272;11.562;2022-09-09T00:06:27;120.07;;;3.70;;
4603;SDS011;2314;48.272;11.562;2022-09-09T00:09:01;124.27;;;3.63;;
4603;SDS011;2314;48.272;11.562;2022-09-09T00:11:36;123.07;;;4.20;;
4603;SDS011;2314;48.272;11.562;2022-09-09T00:14:13;124.57;;;4.17;;
4603;SDS011;2314;48.272;11.562;2022-09-09T00:16:50;125.63;;;4.23;;
4603;SDS011;2314;48.272;11.562;2022-09-09T00:19:22;121.80;;;4.30;;
4603;SDS011;2314;48.272;11.562;2022-09-09T00:21:58;124.53;;;4.33;;
4603;SDS011;2314;48.272;11.562;2022-09-09T00:24:41;121.80;;;4.53;;
4603;SDS011;2314;48.272;11.562;2022-09-09T00:27:14;120.57;;;4.37;;
4603;SDS011;2314;48.272;11.562;2022-09-09T00:29:53;123.90;;;4.30;;
4603;SDS011;2314;48.272;11.562;2022-09-09T00:32:24;121.47;;;4.60;;
4603;SDS011;2314;48.272;11.562;2022-09-09T00:34:56;121.10;;;4.30;;
4603;SDS011;2314;48.272;11.562;2022-09-09T00:37:30;121.40;;;3.83;;
4603;SDS011;2314;48.272;11.562;2022-09-09T00:40:00;120.80;;;4.60;;
4603;SDS011;2314;48.272;11.562;2022-09-09T00:42:36;122.60;;;4.27;;
4603;SDS011;2314;48.272;11.562;2022-09-09T00:45:15;121.07;;;4.47;;
4603;SDS011;2314;48.272;11.562;2022-09-09T00:48:04;119.77;;;3.77;;
4603;SDS011;2314;48.272;11.562;2022-09-09T00:50:39;122.63;;;4.13;;
4603;SDS011;2314;48.272;11.562;2022-09-09T00:53:27;120.17;;;3.80;;
4603;SDS011;2314;48.272;11.562;2022-09-09T00:56:07;121.63;;;4.30;;
4603;SDS011;2314;48.272;11.562;2022-09-09T00:58:40;121.53;;;4.03;;
4603;SDS011;2314;48.272;11.562;2022-09-09T01:01:11;120.17;;;4.50;;
4603;SDS011;2314;48.272;11.562;2022-09-09T01:03:40;120.60;;;4.03;;
4603;SDS011;2314;48.272;11.562;2022-09-09T01:06:15;122.63;;;3.83;;
4603;SDS011;2314;48.272;11.562;2022-09-09T01:08:54;123.33;;;4.40;;
4603;SDS011;2314;48.272;11.562;2022-09-09T01:11:41;122.17;;;4.97;;
4603;SDS011;2314;48.272;11.562;2022-09-09T01:14:19;122.13;;;4.07;;
4603;SDS011;2314;48.272;11.562;2022-09-09T01:16:59;121.03;;;3.80;;
4603;SDS011;2314;48.272;11.562;2022-09-09T01:19:35;122.10;;;5.17;;
4603;SDS011;2314;48.272;11.562;2022-09-09T01:22:13;119.40;;;3.97;;
4603;SDS011;2314;48.272;11.562;2022-09-09T01:25:01;121.07;;;4.60;;
4603;SDS011;2314;48.272;11.562;2022-09-09T01:27:52;120.83;;;4.00;;
4603;SDS011;2314;48.272;11.562;2022-09-09T01:30:22;120.17;;;4.20;;
4603;SDS011;2314;48.272;11.562;2022-09-09T01:32:50;123.17;;;4.23;;
4603;SDS011;2314;48.272;11.562;2022-09-09T01:35:27;123.37;;;4.23;;
4603;SDS011;2314;48.272;11.562;2022-09-09T01:38:03;123.80;;;3.80;;
4603;SDS011;2314;48.272;11.562;2022-09-09T01:40:31;131.73;;;3.70;;
4603;SDS011;2314;48.272;11.562;2022-09-09T01:43:00;124.47;;;4.60;;
4603;SDS011;2314;48.272;11.562;2022-09-09T01:45:27;120.73;;;4.43;;
4603;SDS011;2314;48.272;11.562;2022-09-09T01:47:54;121.00;;;4.03;;
4603;SDS011;2314;48.272;11.562;2022-09-09T01:50:22;121.60;;;4.00;;
4603;SDS011;2314;48.272;11.562;2022-09-09T01:52:50;118.97;;;3.87;;
4603;SDS011;2314;48.272;11.562;2022-09-09T01:55:23;124.30;;;4.30;;
4603;SDS011;2314;48.272;11.562;2022-09-09T01:57:59;119.97;;;4.00;;
4603;SDS011;2314;48.272;11.562;2022-09-09T02:00:41;121.17;;;3.83;;
4603;SDS011;2314;48.272;11.562;2022-09-09T02:03:15;123.17;;;4.10;;
4603;SDS011;2314;48.272;11.562;2022-09-09T02:06:00;120.77;;;3.97;;
4603;SDS011;2314;48.272;11.562;2022-09-09T02:08:42;121.87;;;4.10;;
4603;SDS011;2314;48.272;11.562;2022-09-09T02:11:13;122.20;;;4.00;;
4603;SDS011;2314;48.272;11.562;2022-09-09T02:13:44;123.10;;;4.50;;
4603;SDS011;2314;48.272;11.562;2022-09-09T02:16:15;119.97;;;3.83;;
4603;SDS011;2314;48.272;11.562;2022-09-09T02:18:48;120.07;;;3.70;;
4603;SDS011;2314;48.272;11.562;2022-09-09T02:21:18;119.50;;;3.87;;
4603;SDS011;2314;48.272;11.562;2022-09-09T02:23:46;121.83;;;4.00;;
4603;SDS011;2314;48.272;11.562;2022-09-09T02:26:17;120.00;;;3.80;;
4603;SDS011;2314;48.272;11.562;2022-09-09T02:28:48;121.83;;;4.40;;
4603;SDS011;2314;48.272;11.562;2022-09-09T02:31:17;122.10;;;4.23;;
4603;SDS011;2314;48.272;11.562;2022-09-09T02:33:50;119.47;;;3.77;;
4603;SDS011;2314;48.272;11.562;2022-09-09T02:36:22;120.60;;;4.13;;
4603;SDS011;2314;48.272;11.562;2022-09-09T02:38:52;122.07;;;4.30;;
4603;SDS011;2314;48.272;11.562;2022-09-09T02:41:19;122.27;;;4.37;;
4603;SDS011;2314;48.272;11.562;2022-09-09T02:43:51;120.57;;;4.03;;
4603;SDS011;2314;48.272;11.562;2022-09-09T02:46:23;125.20;;;4.07;;
4603;SDS011;2314;48.272;11.562;2022-09-09T02:49:09;120.20;;;3.60;;
4603;SDS011;2314;48.272;11.562;2022-09-09T02:51:44;121.17;;;4.03;;
4603;SDS011;2314;48.272;11.562;2022-09-09T02:54:21;120.20;;;3.70;;
4603;SDS011;2314;48.272;11.562;2022-09-09T02:56:55;120.07;;;3.70;;
4603;SDS011;2314;48.272;11.562;2022-09-09T02:59:30;120.50;;;3.67;;
4603;SDS011;2314;48.272;11.562;2022-09-09T03:01:57;119.70;;;3.80;;
4603;SDS011;2314;48.272;11.562;2022-09-09T03:04:24;120.17;;;3.73;;
4603;SDS011;2314;48.272;11.562;2022-09-09T03:06:51;122.47;;;4.10;;
4603;SDS011;2314;48.272;11.562;2022-09-09T03:09:18;123.17;;;3.83;;
4603;SDS011;2314;48.272;11.562;2022-09-09T03:11:45;122.87;;;4.13;;
4603;SDS011;2314;48.272;11.562;2022-09-09T03:14:12;122.87;;;3.87;;
4603;SDS011;2314;48.272;11.562;2022-09-09T03:16:40;125.10;;;4.23;;
4603;SDS011;2314;48.272;11.562;2022-09-09T03:19:08;119.57;;;4.00;;
4603;SDS011;2314;48.272;11.562;2022-09-09T03:21:35;120.60;;;4.03;;
4603;SDS011;2314;48.272;11.562;2022-09-09T03:24:02;120.37;;;3.83;;
4603;SDS011;2314;48.272;11.562;2022-09-09T03:26:29;119.97;;;3.90;;
4603;SDS011;2314;48.272;11.562;2022-09-09T03:28:56;119.47;;;3.67;;
4603;SDS011;2314;48.272;11.562;2022-09-09T03:31:25;129.07;;;4.43;;
4603;SDS011;2314;48.272;11.562;2022-09-09T03:33:56;119.47;;;3.70;;
4603;SDS011;2314;48.272;11.562;2022-09-09T03:36:24;122.80;;;3.50;;
4603;SDS011;2314;48.272;11.562;2022-09-09T03:38:53;123.70;;;3.70;;
4603;SDS011;2314;48.272;11.562;2022-09-09T03:41:20;122.13;;;4.60;;
4603;SDS011;2314;48.272;11.562;2022-09-09T03:43:49;121.37;;;3.90;;
4603;SDS011;2314;48.272;11.562;2022-09-09T03:46:16;120.47;;;3.90;;
4603;SDS011;2314;48.272;11.562;2022-09-09T03:48:43;122.50;;;4.40;;
4603;SDS011;2314;48.272;11.562;2022-09-09T03:51:11;123.67;;;4.00;;
4603;SDS011;2314;48.272;11.562;2022-09-09T03:53:39;119.43;;;3.83;;
4603;SDS011;2314;48.272;11.562;2022-09-09T03:56:06;122.70;;;4.53;;
4603;SDS011;2314;48.272;11.562;2022-09-09T03:58:34;119.70;;;3.80;;
4603;SDS011;2314;48.272;11.562;2022-09-09T04:01:02;121.37;;;4.00;;
4603;SDS011;2314;48.272;11.562;2022-09-09T04:03:33;118.57;;;3.60;;
4603;SDS011;2314;48.272;11.562;2022-09-09T04:06:00;120.87;;;3.60;;
4603;SDS011;2314;48.272;11.562;2022-09-09T04:08:31;122.87;;;3.80;;
4603;SDS011;2314;48.272;11.562;2022-09-09T04:10:58;119.20;;;3.73;;
4603;SDS011;2314;48.272;11.562;2022-09-09T04:13:27;132.17;;;4.20;;
4603;SDS011;2314;48.272;11.562;2022-09-09T04:15:56;119.30;;;3.70;;
4603;SDS011;2314;48.272;11.562;2022-09-09T04:18:25;119.37;;;3.73;;
4603;SDS011;2314;48.272;11.562;2022-09-09T04:20:54;121.20;;;3.87;;
4603;SDS011;2314;48.272;11.562;2022-09-09T04:23:22;121.30;;;3.60;;
4603;SDS011;2314;48.272;11.562;2022-09-09T04:25:53;122.37;;;3.67;;
4603;SDS011;2314;48.272;11.562;2022-09-09T04:28:22;119.00;;;3.30;;
4603;SDS011;2314;48.272;11.562;2022-09-09T04:30:51;119.77;;;3.83;;
4603;SDS011;2314;48.272;11.562;2022-09-09T04:33:19;120.00;;;3.87;;
4603;SDS011;2314;48.272;11.562;2022-09-09T04:35:47;120.07;;;3.80;;
4603;SDS011;2314;48.272;11.562;2022-09-09T04:38:15;122.20;;;4.20;;
4603;SDS011;2314;48.272;11.562;2022-09-09T04:40:43;129.13;;;3.77;;
4603;SDS011;2314;48.272;11.562;2022-09-09T04:43:14;119.50;;;3.80;;
4603;SDS011;2314;48.272;11.562;2022-09-09T04:45:41;119.17;;;3.87;;
4603;SDS011;2314;48.272;11.562;2022-09-09T04:48:09;120.87;;;3.80;;
4603;SDS011;2314;48.272;11.562;2022-09-09T04:50:36;118.80;;;3.37;;
4603;SDS011;2314;48.272;11.562;2022-09-09T04:53:03;119.30;;;3.70;;
4603;SDS011;2314;48.272;11.562;2022-09-09T04:55:31;122.30;;;3.60;;
4603;SDS011;2314;48.272;11.562;2022-09-09T04:58:02;119.27;;;3.80;;
4603;SDS011;2314;48.272;11.562;2022-09-09T05:00:32;121.80;;;3.53;;
4603;SDS011;2314;48.272;11.562;2022-09-09T05:03:02;119.57;;;3.70;;
4603;SDS011;2314;48.272;11.562;2022-09-09T05:05:30;118.30;;;3.67;;
4603;SDS011;2314;48.272;11.562;2022-09-09T05:08:00;119.70;;;3.63;;
4603;SDS011;2314;48.272;11.562;2022-09-09T05:10:28;122.17;;;5.03;;
4603;SDS011;2314;48.272;11.562;2022-09-09T05:12:55;120.57;;;3.60;;
4603;SDS011;2314;48.272;11.562;2022-09-09T05:15:22;120.47;;;3.30;;
4603;SDS011;2314;48.272;11.562;2022-09-09T05:17:51;120.37;;;4.17;;
4603;SDS011;2314;48.272;11.562;2022-09-09T05:20:18;120.10;;;4.53;;
4603;SDS011;2314;48.272;11.562;2022-09-09T05:22:46;118.87;;;3.73;;
4603;SDS011;2314;48.272;11.562;2022-09-09T05:25:14;119.27;;;3.90;;
4603;SDS011;2314;48.272;11.562;2022-09-09T05:27:41;119.07;;;3.67;;
4603;SDS011;2314;48.272;11.562;2022-09-09T05:30:09;120.37;;;4.43;;
4603;SDS011;2314;48.272;11.562;2022-09-09T05:32:36;119.07;;;4.10;;
4603;SDS011;2314;48.272;11.562;2022-09-09T05:35:05;118.57;;;3.90;;
4603;SDS011;2314;48.272;11.562;2022-09-09T05:37:33;119.77;;;3.80;;
4603;SDS011;2314;48.272;11.562;2022-09-09T05:40:00;119.20;;;4.00;;
4603;SDS011;2314;48.272;11.562;2022-09-09T05:42:29;119.67;;;4.37;;
4603;SDS011;2314;48.272;11.562;2022-09-09T05:44:57;128.70;;;3.87;;
4603;SDS011;2314;48.272;11.562;2022-09-09T05:47:24;119.00;;;4.10;;
4603;SDS011;2314;48.272;11.562;2022-09-09T05:49:52;120.60;;;3.80;;
4603;SDS011;2314;48.272;11.562;2022-09-09T05:52:21;119.53;;;3.57;;
4603;SDS011;2314;48.272;11.562;2022-09-09T05:54:50;121.20;;;3.70;;
4603;SDS011;2314;48.272;11.562;2022-09-09T05:57:19;118.90;;;3.13;;
4603;SDS011;2314;48.272;11.562;2022-09-09T05:59:46;121.57;;;3.47;;
4603;SDS011;2314;48.272;11.562;2022-09-09T06:02:13;121.20;;;3.87;;
4603;SDS011;2314;48.272;11.562;2022-09-09T06:04:40;118.97;;;3.60;;
4603;SDS011;2314;48.272;11.562;2022-09-09T06:07:07;118.17;;;3.60;;
4603;SDS011;2314;48.272;11.562;2022-09-09T06:09:35;117.90;;;3.57;;
4603;SDS011;2314;48.272;11.562;2022-09-09T06:12:02;118.60;;;4.03;;
4603;SDS011;2314;48.272;11.562;2022-09-09T06:14:29;119.80;;;3.73;;
4603;SDS011;2314;48.272;11.562;2022-09-09T06:16:57;118.87;;;3.83;;
4603;SDS011;2314;48.272;11.562;2022-09-09T06:19:24;117.20;;;3.30;;
4603;SDS011;2314;48.272;11.562;2022-09-09T06:21:52;119.97;;;4.00;;
4603;SDS011;2314;48.272;11.562;2022-09-09T06:24:19;119.17;;;4.00;;
4603;SDS011;2314;48.272;11.562;2022-09-09T06:26:48;121.13;;;3.70;;
4603;SDS011;2314;48.272;11.562;2022-09-09T06:29:15;117.37;;;3.23;;
4603;SDS011;2314;48.272;11.562;2022-09-09T06:31:44;117.73;;;3.40;;
4603;SDS011;2314;48.272;11.562;2022-09-09T06:34:12;120.17;;;3.77;;
4603;SDS011;2314;48.272;11.562;2022-09-09T06:36:39;116.20;;;3.13;;
4603;SDS011;2314;48.272;11.562;2022-09-09T06:39:06;120.10;;;3.47;;
4603;SDS011;2314;48.272;11.562;2022-09-09T06:41:36;116.30;;;3.80;;
4603;SDS011;2314;48.272;11.562;2022-09-09T06:44:04;119.70;;;3.57;;
4603;SDS011;2314;48.272;11.562;2022-09-09T06:46:32;117.07;;;3.20;;
4603;SDS011;2314;48.272;11.562;2022-09-09T06:49:00;115.93;;;3.10;;
4603;SDS011;2314;48.272;11.562;2022-09-09T06:51:28;118.47;;;3.63;;
4603;SDS011;2314;48.272;11.562;2022-09-09T06:53:58;118.30;;;3.57;;
4603;SDS011;2314;48.272;11.562;2022-09-09T06:56:27;121.77;;;4.53;;
4603;SDS011;2314;48.272;11.562;2022-09-09T06:58:57;117.10;;;3.53;;
4603;SDS011;2314;48.272;11.562;2022-09-09T07:01:27;118.40;;;4.03;;
4603;SDS011;2314;48.272;11.562;2022-09-09T07:03:57;119.33;;;3.70;;
4603;SDS011;2314;48.272;11.562;2022-09-09T07:06:26;121.23;;;4.10;;
4603;SDS011;2314;48.272;11.562;2022-09-09T07:08:55;119.93;;;3.57;;
4603;SDS011;2314;48.272;11.562;2022-09-09T07:11:25;126.50;;;3.93;;
4603;SDS011;2314;48.272;11.562;2022-09-09T07:13:54;116.40;;;3.50;;
4603;SDS011;2314;48.272;11.562;2022-09-09T07:16:23;118.70;;;3.80;;
4603;SDS011;2314;48.272;11.562;2022-09-09T07:18:54;121.67;;;3.90;;
4603;SDS011;2314;48.272;11.562;2022-09-09T07:21:23;120.57;;;4.60;;
4603;SDS011;2314;48.272;11.562;2022-09-09T07:23:52;122.13;;;3.87;;
4603;SDS011;2314;48.272;11.562;2022-09-09T07:26:20;121.27;;;3.93;;
4603;SDS011;2314;48.272;11.562;2022-09-09T07:28:50;117.37;;;3.70;;
4603;SDS011;2314;48.272;11.562;2022-09-09T07:31:18;118.57;;;3.80;;
4603;SDS011;2314;48.272;11.562;2022-09-09T07:33:48;128.70;;;3.70;;
4603;SDS011;2314;48.272;11.562;2022-09-09T07:36:18;119.03;;;4.20;;
4603;SDS011;2314;48.272;11.562;2022-09-09T07:38:48;121.97;;;3.93;;
4603;SDS011;2314;48.272;11.562;2022-09-09T07:41:19;121.10;;;3.63;;
4603;SDS011;2314;48.272;11.562;2022-09-09T07:43:50;118.20;;;4.00;;
4603;SDS011;2314;48.272;11.562;2022-09-09T07:46:19;119.87;;;3.90;;
4603;SDS011;2314;48.272;11.562;2022-09-09T07:48:49;117.70;;;3.60;;
4603;SDS011;2314;48.272;11.562;2022-09-09T07:51:20;121.90;;;3.70;;
4603;SDS011;2314;48.272;11.562;2022-09-09T07:53:51;120.20;;;3.97;;
4603;SDS011;2314;48.272;11.562;2022-09-09T07:56:20;119.77;;;3.97;;
4603;SDS011;2314;48.272;11.562;2022-09-09T07:58:48;120.53;;;3.80;;
4603;SDS011;2314;48.272;11.562;2022-09-09T08:01:18;122.50;;;4.30;;
4603;SDS011;2314;48.272;11.562;2022-09-09T08:03:52;117.40;;;3.50;;
4603;SDS011;2314;48.272;11.562;2022-09-09T08:06:25;125.10;;;3.57;;
4603;SDS011;2314;48.272;11.562;2022-09-09T08:08:53;118.80;;;3.40;;
4603;SDS011;2314;48.272;11.562;2022-09-09T08:11:21;117.37;;;3.60;;
4603;SDS011;2314;48.272;11.562;2022-09-09T08:13:50;120.10;;;3.77;;
4603;SDS011;2314;48.272;11.562;2022-09-09T08:16:19;120.10;;;4.00;;
4603;SDS011;2314;48.272;11.562;2022-09-09T08:18:48;119.43;;;3.70;;
4603;SDS011;2314;48.272;11.562;2022-09-09T08:21:17;121.20;;;4.30;;
4603;SDS011;2314;48.272;11.562;2022-09-09T08:23:47;118.57;;;3.93;;
4603;SDS011;2314;48.272;11.562;2022-09-09T08:26:18;117.10;;;3.30;;
4603;SDS011;2314;48.272;11.562;2022-09-09T08:28:48;118.10;;;3.60;;
4603;SDS011;2314;48.272;11.562;2022-09-09T08:31:17;117.67;;;4.03;;
4603;SDS011;2314;48.272;11.562;2022-09-09T08:33:47;118.73;;;3.83;;
4603;SDS011;2314;48.272;11.562;2022-09-09T08:36:15;116.90;;;3.80;;
4603;SDS011;2314;48.272;11.562;2022-09-09T08:38:48;117.87;;;4.10;;
4603;SDS011;2314;48.272;11.562;2022-09-09T08:41:40;117.27;;;3.80;;
4603;SDS011;2314;48.272;11.562;2022-09-09T08:44:29;117.23;;;3.40;;
4603;SDS011;2314;48.272;11.562;2022-09-09T08:47:19;120.97;;;3.33;;
4603;SDS011;2314;48.272;11.562;2022-09-09T08:49:58;116.17;;;3.30;;
4603;SDS011;2314;48.272;11.562;2022-09-09T08:52:41;117.97;;;3.70;;
4603;SDS011;2314;48.272;11.562;2022-09-09T08:55:22;116.67;;;2.83;;
4603;SDS011;2314;48.272;11.562;2022-09-09T08:57:56;117.17;;;3.60;;
4603;SDS011;2314;48.272;11.562;2022-09-09T09:00:28;116.90;;;3.60;;
4603;SDS011;2314;48.272;11.562;2022-09-09T09:03:04;121.60;;;3.80;;
4603;SDS011;2314;48.272;11.562;2022-09-09T09:05:42;118.90;;;3.43;;
4603;SDS011;2314;48.272;11.562;2022-09-09T09:08:16;115.40;;;3.00;;
4603;SDS011;2314;48.272;11.562;2022-09-09T09:10:56;115.67;;;3.10;;
4603;SDS011;2314;48.272;11.562;2022-09-09T09:13:26;115.80;;;2.97;;
4603;SDS011;2314;48.272;11.562;2022-09-09T09:16:02;116.07;;;3.30;;
4603;SDS011;2314;48.272;11.562;2022-09-09T09:18:41;119.70;;;3.40;;
4603;SDS011;2314;48.272;11.562;2022-09-09T09:21:10;119.60;;;3.17;;
4603;SDS011;2314;48.272;11.562;2022-09-09T09:23:45;117.77;;;3.10;;
4603;SDS011;2314;48.272;11.562;2022-09-09T09:26:22;118.40;;;3.40;;
4603;SDS011;2314;48.272;11.562;2022-09-09T09:28:53;118.50;;;3.30;;
4603;SDS011;2314;48.272;11.562;2022-09-09T09:31:22;118.70;;;3.30;;
4603;SDS011;2314;48.272;11.562;2022-09-09T09:33:52;116.57;;;3.27;;
4603;SDS011;2314;48.272;11.562;2022-09-09T09:36:21;121.20;;;3.10;;
4603;SDS011;2314;48.272;11.562;2022-09-09T09:39:02;114.60;;;3.00;;
4603;SDS011;2314;48.272;11.562;2022-09-09T09:41:32;123.97;;;2.50;;
4603;SDS011;2314;48.272;11.562;2022-09-09T09:44:02;113.80;;;2.80;;
4603;SDS011;2314;48.272;11.562;2022-09-09T09:46:30;113.37;;;2.83;;
4603;SDS011;2314;48.272;11.562;2022-09-09T09:48:58;111.80;;;2.53;;
4603;SDS011;2314;48.272;11.562;2022-09-09T09:51:26;125.83;;;2.80;;
4603;SDS011;2314;48.272;11.562;2022-09-09T09:54:05;117.60;;;2.40;;
4603;SDS011;2314;48.272;11.562;2022-09-09T09:56:45;114.07;;;2.70;;
4603;SDS011;2314;48.272;11.562;2022-09-09T09:59:22;112.00;;;2.60;;
4603;SDS011;2314;48.272;11.562;2022-09-09T10:02:06;114.00;;;2.87;;
4603;SDS011;2314;48.272;11.562;2022-09-09T10:04:45;114.67;;;2.67;;
4603;SDS011;2314;48.272;11.562;2022-09-09T10:07:12;112.60;;;2.77;;
4603;SDS011;2314;48.272;11.562;2022-09-09T10:09:44;113.53;;;2.70;;
4603;SDS011;2314;48.272;11.562;2022-09-09T10:12:18;112.50;;;2.50;;
4603;SDS011;2314;48.272;11.562;2022-09-09T10:14:56;113.50;;;3.00;;
4603;SDS011;2314;48.272;11.562;2022-09-09T10:17:32;112.77;;;2.60;;
4603;SDS011;2314;48.272;11.562;2022-09-09T10:20:14;115.80;;;2.90;;
4603;SDS011;2314;48.272;11.562;2022-09-09T10:22:51;113.10;;;2.90;;
4603;SDS011;2314;48.272;11.562;2022-09-09T10:25:29;111.23;;;2.20;;
4603;SDS011;2314;48.272;11.562;2022-09-09T10:31:06;112.33;;;2.40;;
4603;SDS011;2314;48.272;11.562;2022-09-09T10:33:48;114.57;;;2.43;;
4603;SDS011;2314;48.272;11.562;2022-09-09T10:36:19;113.57;;;2.50;;
4603;SDS011;2314;48.272;11.562;2022-09-09T10:38:52;113.30;;;2.60;;
4603;SDS011;2314;48.272;11.562;2022-09-09T10:41:30;113.07;;;2.50;;
4603;SDS011;2314;48.272;11.562;2022-09-09T10:44:20;114.40;;;1.80;;
4603;SDS011;2314;48.272;11.562;2022-09-09T10:47:10;112.93;;;2.00;;
4603;SDS011;2314;48.272;11.562;2022-09-09T10:50:07;109.70;;;2.00;;
4603;SDS011;2314;48.272;11.562;2022-09-09T10:52:50;108.93;;;2.03;;
4603;SDS011;2314;48.272;11.562;2022-09-09T10:55:31;108.40;;;2.20;;
4603;SDS011;2314;48.272;11.562;2022-09-09T10:58:05;108.63;;;2.10;;
4603;SDS011;2314;48.272;11.562;2022-09-09T11:00:39;108.47;;;2.17;;
4603;SDS011;2314;48.272;11.562;2022-09-09T11:03:13;108.10;;;1.80;;
4603;SDS011;2314;48.272;11.562;2022-09-09T11:05:47;108.73;;;1.87;;
4603;SDS011;2314;48.272;11.562;2022-09-09T11:08:18;106.67;;;2.13;;
4603;SDS011;2314;48.272;11.562;2022-09-09T11:10:48;114.53;;;1.97;;
4603;SDS011;2314;48.272;11.562;2022-09-09T11:13:24;106.97;;;1.83;;
4603;SDS011;2314;48.272;11.562;2022-09-09T11:16:00;107.87;;;2.23;;
4603;SDS011;2314;48.272;11.562;2022-09-09T11:18:45;105.23;;;1.90;;
4603;SDS011;2314;48.272;11.562;2022-09-09T11:21:16;106.30;;;2.00;;
4603;SDS011;2314;48.272;11.562;2022-09-09T11:23:48;115.83;;;2.17;;
4603;SDS011;2314;48.272;11.562;2022-09-09T11:26:22;107.03;;;1.80;;
4603;SDS011;2314;48.272;11.562;2022-09-09T11:29:02;108.00;;;1.97;;
4603;SDS011;2314;48.272;11.562;2022-09-09T11:31:46;104.60;;;2.00;;
4603;SDS011;2314;48.272;11.562;2022-09-09T11:34:34;105.17;;;1.87;;
4603;SDS011;2314;48.272;11.562;2022-09-09T11:37:21;104.17;;;1.87;;
4603;SDS011;2314;48.272;11.562;2022-09-09T11:40:17;107.20;;;2.00;;
4603;SDS011;2314;48.272;11.562;2022-09-09T11:42:49;106.30;;;1.90;;
4603;SDS011;2314;48.272;11.562;2022-09-09T11:45:29;106.10;;;1.90;;
4603;SDS011;2314;48.272;11.562;2022-09-09T11:47:59;108.60;;;1.90;;
4603;SDS011;2314;48.272;11.562;2022-09-09T11:50:28;104.37;;;1.83;;
4603;SDS011;2314;48.272;11.562;2022-09-09T11:53:14;105.50;;;1.73;;
4603;SDS011;2314;48.272;11.562;2022-09-09T11:55:59;104.60;;;1.93;;
4603;SDS011;2314;48.272;11.562;2022-09-09T11:58:42;107.80;;;1.73;;
4603;SDS011;2314;48.272;11.562;2022-09-09T12:01:27;109.30;;;1.83;;
4603;SDS011;2314;48.272;11.562;2022-09-09T12:04:12;104.70;;;1.70;;
4603;SDS011;2314;48.272;11.562;2022-09-09T12:06:58;103.77;;;2.00;;
4603;SDS011;2314;48.272;11.562;2022-09-09T12:09:40;104.90;;;2.03;;
4603;SDS011;2314;48.272;11.562;2022-09-09T12:12:27;103.10;;;1.50;;
4603;SDS011;2314;48.272;11.562;2022-09-09T12:15:16;108.53;;;1.80;;
4603;SDS011;2314;48.272;11.562;2022-09-09T12:17:53;104.17;;;1.77;;
4603;SDS011;2314;48.272;11.562;2022-09-09T12:20:26;100.63;;;1.70;;
4603;SDS011;2314;48.272;11.562;2022-09-09T12:23:04;102.80;;;1.47;;
4603;SDS011;2314;48.272;11.562;2022-09-09T12:25:57;103.20;;;1.83;;
4603;SDS011;2314;48.272;11.562;2022-09-09T12:28:50;103.33;;;1.70;;
4603;SDS011;2314;48.272;11.562;2022-09-09T12:31:27;103.80;;;1.60;;
4603;SDS011;2314;48.272;11.562;2022-09-09T12:34:04;104.70;;;1.47;;
4603;SDS011;2314;48.272;11.562;2022-09-09T12:36:42;104.30;;;2.07;;
4603;SDS011;2314;48.272;11.562;2022-09-09T12:39:16;103.57;;;1.57;;
4603;SDS011;2314;48.272;11.562;2022-09-09T12:41:52;104.77;;;1.80;;
4603;SDS011;2314;48.272;11.562;2022-09-09T12:44:21;103.50;;;1.60;;
4603;SDS011;2314;48.272;11.562;2022-09-09T12:46:50;102.77;;;1.47;;
4603;SDS011;2314;48.272;11.562;2022-09-09T12:49:24;103.27;;;1.80;;
4603;SDS011;2314;48.272;11.562;2022-09-09T12:52:00;102.77;;;1.53;;
4603;SDS011;2314;48.272;11.562;2022-09-09T12:54:30;101.17;;;1.40;;
4603;SDS011;2314;48.272;11.562;2022-09-09T12:56:59;101.67;;;1.40;;
4603;SDS011;2314;48.272;11.562;2022-09-09T12:59:26;102.00;;;1.77;;
4603;SDS011;2314;48.272;11.562;2022-09-09T13:02:01;103.30;;;1.60;;
4603;SDS011;2314;48.272;11.562;2022-09-09T13:04:35;102.67;;;1.50;;
4603;SDS011;2314;48.272;11.562;2022-09-09T13:07:07;101.87;;;1.53;;
4603;SDS011;2314;48.272;11.562;2022-09-09T13:09:35;105.57;;;1.63;;
4603;SDS011;2314;48.272;11.562;2022-09-09T13:12:03;101.73;;;1.43;;
4603;SDS011;2314;48.272;11.562;2022-09-09T13:14:33;104.00;;;1.60;;
4603;SDS011;2314;48.272;11.562;2022-09-09T13:17:04;102.97;;;1.40;;
4603;SDS011;2314;48.272;11.562;2022-09-09T13:19:33;103.53;;;1.63;;
4603;SDS011;2314;48.272;11.562;2022-09-09T13:22:12;107.80;;;2.00;;
4603;SDS011;2314;48.272;11.562;2022-09-09T13:24:40;102.17;;;1.67;;
4603;SDS011;2314;48.272;11.562;2022-09-09T13:27:21;104.20;;;1.57;;
4603;SDS011;2314;48.272;11.562;2022-09-09T13:29:54;103.97;;;1.90;;
4603;SDS011;2314;48.272;11.562;2022-09-09T13:32:22;108.00;;;1.70;;
4603;SDS011;2314;48.272;11.562;2022-09-09T13:34:52;102.80;;;1.50;;
4603;SDS011;2314;48.272;11.562;2022-09-09T13:37:23;106.30;;;1.80;;
4603;SDS011;2314;48.272;11.562;2022-09-09T13:39:57;102.13;;;1.40;;
4603;SDS011;2314;48.272;11.562;2022-09-09T13:42:25;104.67;;;1.50;;
4603;SDS011;2314;48.272;11.562;2022-09-09T13:44:54;106.83;;;1.70;;
4603;SDS011;2314;48.272;11.562;2022-09-09T13:47:26;102.70;;;1.50;;
4603;SDS011;2314;48.272;11.562;2022-09-09T13:49:57;102.77;;;1.87;;
4603;SDS011;2314;48.272;11.562;2022-09-09T13:52:26;105.60;;;1.80;;
4603;SDS011;2314;48.272;11.562;2022-09-09T13:54:56;102.67;;;1.40;;
4603;SDS011;2314;48.272;11.562;2022-09-09T13:57:24;102.03;;;1.50;;
4603;SDS011;2314;48.272;11.562;2022-09-09T13:59:52;104.97;;;1.80;;
4603;SDS011;2314;48.272;11.562;2022-09-09T14:02:21;103.50;;;1.50;;
4603;SDS011;2314;48.272;11.562;2022-09-09T14:04:54;103.17;;;1.50;;
4603;SDS011;2314;48.272;11.562;2022-09-09T14:07:21;103.40;;;1.50;;
4603;SDS011;2314;48.272;11.562;2022-09-09T14:09:49;103.97;;;1.77;;
4603;SDS011;2314;48.272;11.562;2022-09-09T14:12:17;104.53;;;1.93;;
4603;SDS011;2314;48.272;11.562;2022-09-09T14:14:45;103.57;;;1.53;;
4603;SDS011;2314;48.272;11.562;2022-09-09T14:17:12;102.37;;;1.23;;
4603;SDS011;2314;48.272;11.562;2022-09-09T14:19:39;104.07;;;1.50;;
4603;SDS011;2314;48.272;11.562;2022-09-09T14:22:06;104.80;;;1.57;;
4603;SDS011;2314;48.272;11.562;2022-09-09T14:24:33;104.20;;;1.47;;
4603;SDS011;2314;48.272;11.562;2022-09-09T14:27:01;105.07;;;1.40;;
4603;SDS011;2314;48.272;11.562;2022-09-09T14:29:28;104.40;;;1.60;;
4603;SDS011;2314;48.272;11.562;2022-09-09T14:31:56;104.27;;;1.50;;
4603;SDS011;2314;48.272;11.562;2022-09-09T14:34:25;106.80;;;1.63;;
4603;SDS011;2314;48.272;11.562;2022-09-09T14:36:53;104.77;;;1.40;;
4603;SDS011;2314;48.272;11.562;2022-09-09T14:39:19;103.90;;;1.27;;
4603;SDS011;2314;48.272;11.562;2022-09-09T14:41:46;105.27;;;1.50;;
4603;SDS011;2314;48.272;11.562;2022-09-09T14:44:15;104.43;;;1.30;;
4603;SDS011;2314;48.272;11.562;2022-09-09T14:46:42;105.83;;;1.47;;
4603;SDS011;2314;48.272;11.562;2022-09-09T14:49:09;105.30;;;1.53;;
4603;SDS011;2314;48.272;11.562;2022-09-09T14:51:38;105.77;;;1.60;;
4603;SDS011;2314;48.272;11.562;2022-09-09T14:54:05;105.90;;;1.50;;
4603;SDS011;2314;48.272;11.562;2022-09-09T14:56:32;105.90;;;1.50;;
4603;SDS011;2314;48.272;11.562;2022-09-09T14:59:00;106.47;;;1.60;;
4603;SDS011;2314;48.272;11.562;2022-09-09T15:01:29;106.77;;;1.60;;
4603;SDS011;2314;48.272;11.562;2022-09-09T15:03:58;109.00;;;1.80;;
4603;SDS011;2314;48.272;11.562;2022-09-09T15:06:27;108.67;;;2.07;;